Terminal Aerodrome Forecast
Issued by NWS

Home | Current Version | Previous Version | Text Only | Print | Product List | Glossary On
Versions: 1 2 3 4 5 6 7 8 9 10 11 12 13 14 15 16 17 18 19 20 21
000
FTUS43 KLSX 161120
TAFUIN
TAF
KUIN 161120Z 1612/1712 33005KT P6SM FEW250
     FM162100 12006KT P6SM FEW250
     FM170600 14009KT P6SM SCT250=

USA.gov is the U.S. government's official web portal to all federal, state and local government web resources and services.